sensor_id;sensor_type;location;lat;lon;timestamp;P1;durP1;ratioP1;P2;durP2;ratioP2
56567;SDS011;42456;49.956;20.004;2023-01-28T03:53:37;31.50;;;12.40;;
56567;SDS011;42456;49.956;20.004;2023-01-28T04:48:06;23.40;;;10.40;;
56567;SDS011;42456;49.956;20.004;2023-01-28T11:33:56;16.40;;;7.40;;
56567;SDS011;42456;49.956;20.004;2023-01-28T11:36:27;16.40;;;7.60;;
56567;SDS011;42456;49.956;20.004;2023-01-28T11:39:02;16.40;;;7.70;;
56567;SDS011;42456;49.956;20.004;2023-01-28T11:41:41;15.50;;;7.40;;
56567;SDS011;42456;49.956;20.004;2023-01-28T11:44:29;14.40;;;6.80;;
56567;SDS011;42456;49.956;20.004;2023-01-28T12:00:50;17.10;;;8.20;;
56567;SDS011;42456;49.956;20.004;2023-01-28T12:14:36;16.70;;;8.10;;
56567;SDS011;42456;49.956;20.004;2023-01-28T12:30:17;23.20;;;10.30;;
56567;SDS011;42456;49.956;20.004;2023-01-28T12:35:46;18.20;;;8.60;;
56567;SDS011;42456;49.956;20.004;2023-01-28T12:41:19;19.90;;;8.70;;
56567;SDS011;42456;49.956;20.004;2023-01-28T12:49:31;22.30;;;10.10;;
56567;SDS011;42456;49.956;20.004;2023-01-28T12:54:40;19.70;;;8.90;;
56567;SDS011;42456;49.956;20.004;2023-01-28T12:57:20;19.90;;;8.40;;
56567;SDS011;42456;49.956;20.004;2023-01-28T13:00:35;18.80;;;8.90;;
56567;SDS011;42456;49.956;20.004;2023-01-28T13:05:58;22.60;;;10.70;;
56567;SDS011;42456;49.956;20.004;2023-01-28T13:08:28;20.00;;;9.10;;
56567;SDS011;42456;49.956;20.004;2023-01-28T13:10:56;22.30;;;10.50;;
56567;SDS011;42456;49.956;20.004;2023-01-28T13:16:04;27.10;;;12.70;;
56567;SDS011;42456;49.956;20.004;2023-01-28T13:21:28;21.80;;;10.20;;
56567;SDS011;42456;49.956;20.004;2023-01-28T13:31:41;24.00;;;11.60;;
56567;SDS011;42456;49.956;20.004;2023-01-28T13:40:02;22.70;;;10.30;;
56567;SDS011;42456;49.956;20.004;2023-01-28T13:42:34;21.90;;;9.60;;
56567;SDS011;42456;49.956;20.004;2023-01-28T13:47:43;18.90;;;9.60;;
56567;SDS011;42456;49.956;20.004;2023-01-28T13:50:21;21.00;;;9.70;;
56567;SDS011;42456;49.956;20.004;2023-01-28T13:52:57;19.00;;;9.10;;
56567;SDS011;42456;49.956;20.004;2023-01-28T13:55:28;24.30;;;10.70;;
56567;SDS011;42456;49.956;20.004;2023-01-28T14:17:43;16.80;;;7.40;;
56567;SDS011;42456;49.956;20.004;2023-01-28T14:20:25;19.80;;;9.10;;
56567;SDS011;42456;49.956;20.004;2023-01-28T14:25:27;18.30;;;7.80;;
56567;SDS011;42456;49.956;20.004;2023-01-28T14:28:10;19.10;;;8.60;;
56567;SDS011;42456;49.956;20.004;2023-01-28T14:33:29;22.60;;;9.80;;
56567;SDS011;42456;49.956;20.004;2023-01-28T14:35:58;21.10;;;9.50;;
56567;SDS011;42456;49.956;20.004;2023-01-28T14:38:25;20.00;;;8.70;;
56567;SDS011;42456;49.956;20.004;2023-01-28T14:40:53;19.90;;;8.80;;
56567;SDS011;42456;49.956;20.004;2023-01-28T14:43:22;21.80;;;10.00;;
56567;SDS011;42456;49.956;20.004;2023-01-28T15:02:17;18.30;;;8.50;;
56567;SDS011;42456;49.956;20.004;2023-01-28T15:04:46;16.30;;;7.30;;
56567;SDS011;42456;49.956;20.004;2023-01-28T15:07:18;17.90;;;7.70;;
56567;SDS011;42456;49.956;20.004;2023-01-28T15:10:00;17.80;;;7.40;;
56567;SDS011;42456;49.956;20.004;2023-01-28T15:12:36;19.10;;;8.70;;
56567;SDS011;42456;49.956;20.004;2023-01-28T15:15:07;18.20;;;8.10;;
56567;SDS011;42456;49.956;20.004;2023-01-28T15:17:44;19.40;;;9.20;;
56567;SDS011;42456;49.956;20.004;2023-01-28T15:20:20;20.30;;;8.40;;
56567;SDS011;42456;49.956;20.004;2023-01-28T15:22:50;20.00;;;8.50;;
56567;SDS011;42456;49.956;20.004;2023-01-28T15:25:19;20.80;;;10.00;;
56567;SDS011;42456;49.956;20.004;2023-01-28T15:30:17;22.00;;;10.00;;
56567;SDS011;42456;49.956;20.004;2023-01-28T15:32:55;24.30;;;11.30;;
56567;SDS011;42456;49.956;20.004;2023-01-28T15:35:32;20.60;;;10.20;;
56567;SDS011;42456;49.956;20.004;2023-01-28T15:38:01;23.70;;;11.00;;
56567;SDS011;42456;49.956;20.004;2023-01-28T15:40:31;22.60;;;10.90;;
56567;SDS011;42456;49.956;20.004;2023-01-28T15:43:13;23.40;;;11.00;;
56567;SDS011;42456;49.956;20.004;2023-01-28T15:45:46;19.90;;;10.20;;
56567;SDS011;42456;49.956;20.004;2023-01-28T15:48:15;24.70;;;12.50;;
56567;SDS011;42456;49.956;20.004;2023-01-28T15:50:42;28.00;;;13.80;;
56567;SDS011;42456;49.956;20.004;2023-01-28T15:53:10;31.60;;;14.60;;
56567;SDS011;42456;49.956;20.004;2023-01-28T15:55:43;35.10;;;16.80;;
56567;SDS011;42456;49.956;20.004;2023-01-28T15:58:24;43.90;;;18.40;;
56567;SDS011;42456;49.956;20.004;2023-01-28T16:01:28;32.70;;;15.00;;
56567;SDS011;42456;49.956;20.004;2023-01-28T16:06:31;30.00;;;14.40;;
56567;SDS011;42456;49.956;20.004;2023-01-28T16:09:05;33.80;;;16.20;;
56567;SDS011;42456;49.956;20.004;2023-01-28T16:11:43;33.70;;;14.60;;
56567;SDS011;42456;49.956;20.004;2023-01-28T16:16:56;35.30;;;16.30;;
56567;SDS011;42456;49.956;20.004;2023-01-28T16:24:31;24.40;;;11.30;;
56567;SDS011;42456;49.956;20.004;2023-01-28T16:27:03;22.30;;;10.30;;
56567;SDS011;42456;49.956;20.004;2023-01-28T16:29:35;23.50;;;10.50;;
56567;SDS011;42456;49.956;20.004;2023-01-28T16:32:03;28.20;;;12.30;;
56567;SDS011;42456;49.956;20.004;2023-01-28T16:34:50;25.50;;;12.30;;
56567;SDS011;42456;49.956;20.004;2023-01-28T16:37:17;39.50;;;16.50;;
56567;SDS011;42456;49.956;20.004;2023-01-28T16:39:43;40.00;;;18.70;;
56567;SDS011;42456;49.956;20.004;2023-01-28T16:42:10;36.50;;;17.00;;
56567;SDS011;42456;49.956;20.004;2023-01-28T16:44:37;38.50;;;18.40;;
56567;SDS011;42456;49.956;20.004;2023-01-28T16:47:04;46.60;;;19.90;;
56567;SDS011;42456;49.956;20.004;2023-01-28T16:49:31;41.70;;;18.70;;
56567;SDS011;42456;49.956;20.004;2023-01-28T16:51:58;43.60;;;18.60;;
56567;SDS011;42456;49.956;20.004;2023-01-28T16:54:26;50.00;;;20.70;;
56567;SDS011;42456;49.956;20.004;2023-01-28T16:56:54;44.70;;;20.50;;
56567;SDS011;42456;49.956;20.004;2023-01-28T16:59:22;42.60;;;19.40;;
56567;SDS011;42456;49.956;20.004;2023-01-28T17:01:49;41.40;;;19.80;;
56567;SDS011;42456;49.956;20.004;2023-01-28T17:04:16;52.10;;;23.50;;
56567;SDS011;42456;49.956;20.004;2023-01-28T17:06:43;52.90;;;22.10;;
56567;SDS011;42456;49.956;20.004;2023-01-28T17:09:11;60.80;;;23.00;;
56567;SDS011;42456;49.956;20.004;2023-01-28T17:11:39;72.40;;;26.80;;
56567;SDS011;42456;49.956;20.004;2023-01-28T17:14:06;53.60;;;21.20;;
56567;SDS011;42456;49.956;20.004;2023-01-28T17:16:34;53.30;;;21.50;;
56567;SDS011;42456;49.956;20.004;2023-01-28T17:19:01;58.40;;;24.20;;
56567;SDS011;42456;49.956;20.004;2023-01-28T17:21:28;48.00;;;20.70;;
56567;SDS011;42456;49.956;20.004;2023-01-28T17:23:55;52.10;;;21.20;;
56567;SDS011;42456;49.956;20.004;2023-01-28T17:26:24;43.60;;;18.80;;
56567;SDS011;42456;49.956;20.004;2023-01-28T17:28:51;40.70;;;16.70;;
56567;SDS011;42456;49.956;20.004;2023-01-28T17:31:19;37.90;;;17.50;;
56567;SDS011;42456;49.956;20.004;2023-01-28T17:33:51;39.80;;;17.70;;
56567;SDS011;42456;49.956;20.004;2023-01-28T17:36:19;42.80;;;17.70;;
56567;SDS011;42456;49.956;20.004;2023-01-28T17:38:46;39.60;;;18.00;;
56567;SDS011;42456;49.956;20.004;2023-01-28T17:41:14;42.00;;;18.70;;
56567;SDS011;42456;49.956;20.004;2023-01-28T17:43:43;43.30;;;19.00;;
56567;SDS011;42456;49.956;20.004;2023-01-28T17:46:15;36.50;;;17.30;;
56567;SDS011;42456;49.956;20.004;2023-01-28T17:48:42;38.60;;;17.40;;
56567;SDS011;42456;49.956;20.004;2023-01-28T17:51:25;44.70;;;19.10;;
56567;SDS011;42456;49.956;20.004;2023-01-28T17:53:52;48.30;;;20.10;;
56567;SDS011;42456;49.956;20.004;2023-01-28T17:56:21;41.00;;;18.80;;
56567;SDS011;42456;49.956;20.004;2023-01-28T17:58:55;42.30;;;19.60;;
56567;SDS011;42456;49.956;20.004;2023-01-28T18:01:24;38.60;;;17.20;;
56567;SDS011;42456;49.956;20.004;2023-01-28T18:03:52;38.50;;;17.90;;
56567;SDS011;42456;49.956;20.004;2023-01-28T18:06:20;37.80;;;18.30;;
56567;SDS011;42456;49.956;20.004;2023-01-28T18:08:47;42.20;;;19.70;;
56567;SDS011;42456;49.956;20.004;2023-01-28T18:11:15;44.10;;;19.20;;
56567;SDS011;42456;49.956;20.004;2023-01-28T18:13:44;50.50;;;22.70;;
56567;SDS011;42456;49.956;20.004;2023-01-28T18:16:12;50.10;;;22.50;;
56567;SDS011;42456;49.956;20.004;2023-01-28T18:18:41;53.20;;;23.60;;
56567;SDS011;42456;49.956;20.004;2023-01-28T18:24:18;55.20;;;24.40;;
56567;SDS011;42456;49.956;20.004;2023-01-28T18:26:45;59.70;;;26.50;;
56567;SDS011;42456;49.956;20.004;2023-01-28T18:29:12;66.00;;;27.50;;
56567;SDS011;42456;49.956;20.004;2023-01-28T18:31:46;49.40;;;22.90;;
56567;SDS011;42456;49.956;20.004;2023-01-28T18:34:14;51.40;;;22.40;;
56567;SDS011;42456;49.956;20.004;2023-01-28T18:36:42;44.30;;;21.50;;
56567;SDS011;42456;49.956;20.004;2023-01-28T18:39:09;43.20;;;19.50;;
56567;SDS011;42456;49.956;20.004;2023-01-28T18:41:40;40.90;;;18.80;;
56567;SDS011;42456;49.956;20.004;2023-01-28T18:44:07;41.60;;;18.50;;
56567;SDS011;42456;49.956;20.004;2023-01-28T18:46:36;44.30;;;20.60;;
56567;SDS011;42456;49.956;20.004;2023-01-28T18:49:03;40.80;;;18.20;;
56567;SDS011;42456;49.956;20.004;2023-01-28T18:51:30;44.20;;;20.50;;
56567;SDS011;42456;49.956;20.004;2023-01-28T18:53:57;38.30;;;17.70;;
56567;SDS011;42456;49.956;20.004;2023-01-28T18:56:26;44.30;;;17.60;;
56567;SDS011;42456;49.956;20.004;2023-01-28T18:59:00;39.90;;;18.80;;
56567;SDS011;42456;49.956;20.004;2023-01-28T19:01:28;39.30;;;18.10;;
56567;SDS011;42456;49.956;20.004;2023-01-28T19:03:57;40.20;;;19.00;;
56567;SDS011;42456;49.956;20.004;2023-01-28T19:06:25;43.10;;;18.40;;
56567;SDS011;42456;49.956;20.004;2023-01-28T19:09:01;38.80;;;19.00;;
56567;SDS011;42456;49.956;20.004;2023-01-28T19:11:33;45.50;;;20.30;;
56567;SDS011;42456;49.956;20.004;2023-01-28T19:14:00;42.30;;;19.00;;
56567;SDS011;42456;49.956;20.004;2023-01-28T19:16:27;37.50;;;18.70;;
56567;SDS011;42456;49.956;20.004;2023-01-28T19:18:56;39.10;;;18.90;;
56567;SDS011;42456;49.956;20.004;2023-01-28T19:21:25;40.50;;;18.70;;
56567;SDS011;42456;49.956;20.004;2023-01-28T19:23:53;45.30;;;22.00;;
56567;SDS011;42456;49.956;20.004;2023-01-28T19:26:22;44.60;;;21.00;;
56567;SDS011;42456;49.956;20.004;2023-01-28T19:28:50;42.90;;;21.00;;
56567;SDS011;42456;49.956;20.004;2023-01-28T19:31:17;45.30;;;20.40;;
56567;SDS011;42456;49.956;20.004;2023-01-28T19:33:46;43.30;;;20.40;;
56567;SDS011;42456;49.956;20.004;2023-01-28T19:36:14;47.00;;;22.50;;
56567;SDS011;42456;49.956;20.004;2023-01-28T19:38:41;60.00;;;25.20;;
56567;SDS011;42456;49.956;20.004;2023-01-28T19:41:08;54.00;;;23.30;;
56567;SDS011;42456;49.956;20.004;2023-01-28T19:43:35;57.10;;;24.90;;
56567;SDS011;42456;49.956;20.004;2023-01-28T19:46:02;46.50;;;21.90;;
56567;SDS011;42456;49.956;20.004;2023-01-28T19:48:31;44.50;;;21.50;;
56567;SDS011;42456;49.956;20.004;2023-01-28T19:51:05;43.80;;;20.10;;
56567;SDS011;42456;49.956;20.004;2023-01-28T19:53:34;49.40;;;22.00;;
56567;SDS011;42456;49.956;20.004;2023-01-28T19:56:02;46.30;;;22.40;;
56567;SDS011;42456;49.956;20.004;2023-01-28T19:58:32;47.30;;;22.90;;
56567;SDS011;42456;49.956;20.004;2023-01-28T20:01:07;47.40;;;21.40;;
56567;SDS011;42456;49.956;20.004;2023-01-28T20:03:37;50.30;;;21.30;;
56567;SDS011;42456;49.956;20.004;2023-01-28T20:06:05;44.60;;;20.50;;
56567;SDS011;42456;49.956;20.004;2023-01-28T20:08:34;40.90;;;18.90;;
56567;SDS011;42456;49.956;20.004;2023-01-28T20:11:12;40.50;;;19.80;;
56567;SDS011;42456;49.956;20.004;2023-01-28T20:13:41;38.00;;;19.30;;
56567;SDS011;42456;49.956;20.004;2023-01-28T20:18:41;36.00;;;16.60;;
56567;SDS011;42456;49.956;20.004;2023-01-28T20:21:08;39.60;;;20.00;;
56567;SDS011;42456;49.956;20.004;2023-01-28T20:23:35;45.30;;;20.20;;
56567;SDS011;42456;49.956;20.004;2023-01-28T20:26:02;42.40;;;21.10;;
56567;SDS011;42456;49.956;20.004;2023-01-28T20:28:29;43.20;;;20.90;;
56567;SDS011;42456;49.956;20.004;2023-01-28T20:30:56;45.90;;;21.40;;
56567;SDS011;42456;49.956;20.004;2023-01-28T20:33:23;49.00;;;22.00;;
56567;SDS011;42456;49.956;20.004;2023-01-28T20:35:50;42.40;;;20.70;;
56567;SDS011;42456;49.956;20.004;2023-01-28T20:38:16;38.50;;;18.60;;
56567;SDS011;42456;49.956;20.004;2023-01-28T20:40:43;40.20;;;19.10;;
56567;SDS011;42456;49.956;20.004;2023-01-28T20:43:11;37.90;;;19.20;;
56567;SDS011;42456;49.956;20.004;2023-01-28T20:45:38;40.80;;;19.40;;
56567;SDS011;42456;49.956;20.004;2023-01-28T20:48:05;39.90;;;18.80;;
56567;SDS011;42456;49.956;20.004;2023-01-28T20:50:32;40.60;;;19.50;;
56567;SDS011;42456;49.956;20.004;2023-01-28T20:53:00;41.20;;;20.60;;
56567;SDS011;42456;49.956;20.004;2023-01-28T20:55:27;47.20;;;22.80;;
56567;SDS011;42456;49.956;20.004;2023-01-28T20:57:54;51.60;;;24.60;;
56567;SDS011;42456;49.956;20.004;2023-01-28T21:00:21;46.20;;;22.50;;
56567;SDS011;42456;49.956;20.004;2023-01-28T21:02:48;48.40;;;22.90;;
56567;SDS011;42456;49.956;20.004;2023-01-28T21:05:15;44.90;;;21.40;;
56567;SDS011;42456;49.956;20.004;2023-01-28T21:07:42;54.80;;;25.30;;
56567;SDS011;42456;49.956;20.004;2023-01-28T21:10:09;50.60;;;23.10;;
56567;SDS011;42456;49.956;20.004;2023-01-28T21:12:36;48.00;;;21.20;;
56567;SDS011;42456;49.956;20.004;2023-01-28T21:15:03;43.00;;;20.60;;
56567;SDS011;42456;49.956;20.004;2023-01-28T21:17:31;51.10;;;23.40;;
56567;SDS011;42456;49.956;20.004;2023-01-28T21:19:58;47.10;;;21.80;;
56567;SDS011;42456;49.956;20.004;2023-01-28T21:22:24;44.30;;;20.20;;
56567;SDS011;42456;49.956;20.004;2023-01-28T21:24:51;46.20;;;22.10;;
56567;SDS011;42456;49.956;20.004;2023-01-28T21:27:18;48.90;;;21.50;;
56567;SDS011;42456;49.956;20.004;2023-01-28T21:29:45;47.20;;;22.10;;
56567;SDS011;42456;49.956;20.004;2023-01-28T21:32:12;44.60;;;20.70;;
56567;SDS011;42456;49.956;20.004;2023-01-28T21:34:41;41.70;;;20.50;;
56567;SDS011;42456;49.956;20.004;2023-01-28T21:37:08;47.30;;;21.40;;
56567;SDS011;42456;49.956;20.004;2023-01-28T21:39:34;41.40;;;20.20;;
56567;SDS011;42456;49.956;20.004;2023-01-28T21:42:01;42.30;;;20.00;;
56567;SDS011;42456;49.956;20.004;2023-01-28T21:44:28;44.30;;;21.70;;
56567;SDS011;42456;49.956;20.004;2023-01-28T21:46:55;41.40;;;20.30;;
56567;SDS011;42456;49.956;20.004;2023-01-28T21:49:22;43.80;;;21.30;;
56567;SDS011;42456;49.956;20.004;2023-01-28T21:51:49;39.80;;;19.80;;
56567;SDS011;42456;49.956;20.004;2023-01-28T21:54:17;47.50;;;21.10;;
56567;SDS011;42456;49.956;20.004;2023-01-28T21:56:45;44.60;;;21.50;;
56567;SDS011;42456;49.956;20.004;2023-01-28T21:59:14;54.50;;;24.40;;
56567;SDS011;42456;49.956;20.004;2023-01-28T22:04:30;45.80;;;23.10;;
56567;SDS011;42456;49.956;20.004;2023-01-28T22:09:27;43.60;;;20.90;;
56567;SDS011;42456;49.956;20.004;2023-01-28T22:11:55;45.40;;;21.40;;
56567;SDS011;42456;49.956;20.004;2023-01-28T22:14:22;43.90;;;20.70;;
56567;SDS011;42456;49.956;20.004;2023-01-28T22:16:48;42.50;;;21.50;;
56567;SDS011;42456;49.956;20.004;2023-01-28T22:19:15;45.30;;;21.90;;
56567;SDS011;42456;49.956;20.004;2023-01-28T22:21:43;53.40;;;25.40;;
56567;SDS011;42456;49.956;20.004;2023-01-28T22:24:12;49.00;;;24.60;;
56567;SDS011;42456;49.956;20.004;2023-01-28T22:26:41;51.00;;;23.40;;
56567;SDS011;42456;49.956;20.004;2023-01-28T22:29:09;46.60;;;23.30;;
56567;SDS011;42456;49.956;20.004;2023-01-28T22:31:37;43.10;;;21.60;;
56567;SDS011;42456;49.956;20.004;2023-01-28T22:34:04;51.00;;;24.40;;
56567;SDS011;42456;49.956;20.004;2023-01-28T22:36:31;53.60;;;23.00;;
56567;SDS011;42456;49.956;20.004;2023-01-28T22:38:59;46.80;;;22.60;;
56567;SDS011;42456;49.956;20.004;2023-01-28T22:41:27;45.00;;;22.50;;
56567;SDS011;42456;49.956;20.004;2023-01-28T22:43:54;42.40;;;21.40;;
56567;SDS011;42456;49.956;20.004;2023-01-28T22:46:21;47.50;;;23.30;;
56567;SDS011;42456;49.956;20.004;2023-01-28T22:48:49;47.70;;;23.50;;
56567;SDS011;42456;49.956;20.004;2023-01-28T22:51:18;44.30;;;23.80;;
56567;SDS011;42456;49.956;20.004;2023-01-28T22:53:47;44.60;;;22.70;;
56567;SDS011;42456;49.956;20.004;2023-01-28T22:56:15;46.70;;;22.30;;
56567;SDS011;42456;49.956;20.004;2023-01-28T22:58:43;42.10;;;20.10;;
56567;SDS011;42456;49.956;20.004;2023-01-28T23:01:11;39.20;;;19.10;;
56567;SDS011;42456;49.956;20.004;2023-01-28T23:03:46;43.10;;;20.00;;
56567;SDS011;42456;49.956;20.004;2023-01-28T23:06:16;41.30;;;19.70;;
56567;SDS011;42456;49.956;20.004;2023-01-28T23:08:44;39.00;;;19.00;;
56567;SDS011;42456;49.956;20.004;2023-01-28T23:11:12;38.60;;;19.00;;
56567;SDS011;42456;49.956;20.004;2023-01-28T23:13:51;35.80;;;17.50;;
56567;SDS011;42456;49.956;20.004;2023-01-28T23:16:33;42.90;;;20.20;;
56567;SDS011;42456;49.956;20.004;2023-01-28T23:19:15;36.90;;;17.70;;
56567;SDS011;42456;49.956;20.004;2023-01-28T23:21:56;40.70;;;18.60;;
56567;SDS011;42456;49.956;20.004;2023-01-28T23:24:37;34.70;;;15.10;;
56567;SDS011;42456;49.956;20.004;2023-01-28T23:27:04;35.60;;;16.90;;
56567;SDS011;42456;49.956;20.004;2023-01-28T23:29:31;34.40;;;16.10;;
56567;SDS011;42456;49.956;20.004;2023-01-28T23:31:59;34.30;;;16.40;;
56567;SDS011;42456;49.956;20.004;2023-01-28T23:34:30;37.10;;;16.20;;
56567;SDS011;42456;49.956;20.004;2023-01-28T23:37:00;32.50;;;15.90;;
56567;SDS011;42456;49.956;20.004;2023-01-28T23:39:28;33.40;;;15.20;;
56567;SDS011;42456;49.956;20.004;2023-01-28T23:41:55;30.00;;;13.30;;
56567;SDS011;42456;49.956;20.004;2023-01-28T23:44:23;27.70;;;11.90;;
56567;SDS011;42456;49.956;20.004;2023-01-28T23:46:53;24.20;;;11.40;;
56567;SDS011;42456;49.956;20.004;2023-01-28T23:49:20;27.00;;;12.40;;
56567;SDS011;42456;49.956;20.004;2023-01-28T23:51:47;25.80;;;11.60;;
56567;SDS011;42456;49.956;20.004;2023-01-28T23:54:15;27.90;;;12.70;;
56567;SDS011;42456;49.956;20.004;2023-01-28T23:56:42;25.10;;;12.10;;
56567;SDS011;42456;49.956;20.004;2023-01-28T23:59:09;26.00;;;11.40;;
